sensor_id;sensor_type;location;lat;lon;timestamp;temperature;humidity
31619;DHT22;18230;51.502;7.108;2023-11-19T00:02:47;11.20;99.90
31619;DHT22;18230;51.502;7.108;2023-11-19T00:07:47;11.30;99.90
31619;DHT22;18230;51.502;7.108;2023-11-19T00:12:49;11.30;99.90
31619;DHT22;18230;51.502;7.108;2023-11-19T00:17:50;11.40;99.90
31619;DHT22;18230;51.502;7.108;2023-11-19T00:22:50;11.40;99.90
31619;DHT22;18230;51.502;7.108;2023-11-19T00:27:53;11.50;99.90
31619;DHT22;18230;51.502;7.108;2023-11-19T00:32:54;11.50;99.90
31619;DHT22;18230;51.502;7.108;2023-11-19T00:37:55;11.60;99.90
31619;DHT22;18230;51.502;7.108;2023-11-19T00:42:55;11.70;99.90
31619;DHT22;18230;51.502;7.108;2023-11-19T00:47:56;11.70;99.90
31619;DHT22;18230;51.502;7.108;2023-11-19T00:52:56;11.80;99.90
31619;DHT22;18230;51.502;7.108;2023-11-19T00:57:57;11.90;99.90
31619;DHT22;18230;51.502;7.108;2023-11-19T01:02:58;11.90;99.90
31619;DHT22;18230;51.502;7.108;2023-11-19T01:08:00;12.00;99.90
31619;DHT22;18230;51.502;7.108;2023-11-19T01:13:01;12.00;99.90
31619;DHT22;18230;51.502;7.108;2023-11-19T01:18:01;12.00;99.90
31619;DHT22;18230;51.502;7.108;2023-11-19T01:23:05;12.10;99.90
31619;DHT22;18230;51.502;7.108;2023-11-19T01:28:05;12.10;99.90
31619;DHT22;18230;51.502;7.108;2023-11-19T01:33:06;12.30;99.90
31619;DHT22;18230;51.502;7.108;2023-11-19T01:38:07;12.30;99.90
31619;DHT22;18230;51.502;7.108;2023-11-19T01:43:11;12.30;99.90
31619;DHT22;18230;51.502;7.108;2023-11-19T01:48:13;12.40;99.90
31619;DHT22;18230;51.502;7.108;2023-11-19T01:53:14;12.40;99.90
31619;DHT22;18230;51.502;7.108;2023-11-19T01:58:15;12.40;99.90
31619;DHT22;18230;51.502;7.108;2023-11-19T02:03:16;12.60;99.90
31619;DHT22;18230;51.502;7.108;2023-11-19T02:08:17;12.50;99.90
31619;DHT22;18230;51.502;7.108;2023-11-19T02:13:18;12.50;99.90
31619;DHT22;18230;51.502;7.108;2023-11-19T02:18:20;12.50;99.90
31619;DHT22;18230;51.502;7.108;2023-11-19T02:23:22;12.60;99.90
31619;DHT22;18230;51.502;7.108;2023-11-19T02:28:23;12.70;99.90
31619;DHT22;18230;51.502;7.108;2023-11-19T02:33:24;12.70;99.90
31619;DHT22;18230;51.502;7.108;2023-11-19T02:38:25;12.70;99.90
31619;DHT22;18230;51.502;7.108;2023-11-19T02:43:26;12.80;99.90
31619;DHT22;18230;51.502;7.108;2023-11-19T02:48:26;12.80;99.90
31619;DHT22;18230;51.502;7.108;2023-11-19T02:53:27;12.80;99.90
31619;DHT22;18230;51.502;7.108;2023-11-19T02:58:29;12.80;99.90
31619;DHT22;18230;51.502;7.108;2023-11-19T03:03:29;12.80;99.90
31619;DHT22;18230;51.502;7.108;2023-11-19T03:08:38;12.80;99.90
31619;DHT22;18230;51.502;7.108;2023-11-19T03:13:39;12.90;99.90
31619;DHT22;18230;51.502;7.108;2023-11-19T03:18:39;12.90;99.90
31619;DHT22;18230;51.502;7.108;2023-11-19T03:23:40;12.90;99.90
31619;DHT22;18230;51.502;7.108;2023-11-19T03:28:41;12.90;99.90
31619;DHT22;18230;51.502;7.108;2023-11-19T03:33:41;12.90;99.90
31619;DHT22;18230;51.502;7.108;2023-11-19T03:38:42;12.90;99.90
31619;DHT22;18230;51.502;7.108;2023-11-19T03:43:43;12.90;99.90
31619;DHT22;18230;51.502;7.108;2023-11-19T03:48:43;12.80;99.90
31619;DHT22;18230;51.502;7.108;2023-11-19T03:53:45;12.80;99.90
31619;DHT22;18230;51.502;7.108;2023-11-19T03:58:46;12.70;99.90
31619;DHT22;18230;51.502;7.108;2023-11-19T04:03:46;12.70;99.90
31619;DHT22;18230;51.502;7.108;2023-11-19T04:08:47;12.70;99.90
31619;DHT22;18230;51.502;7.108;2023-11-19T04:13:47;12.60;99.90
31619;DHT22;18230;51.502;7.108;2023-11-19T04:18:48;12.60;99.90
31619;DHT22;18230;51.502;7.108;2023-11-19T04:23:49;12.50;99.90
31619;DHT22;18230;51.502;7.108;2023-11-19T04:28:50;12.50;99.90
31619;DHT22;18230;51.502;7.108;2023-11-19T04:33:51;12.50;99.90
31619;DHT22;18230;51.502;7.108;2023-11-19T04:38:52;12.50;99.90
31619;DHT22;18230;51.502;7.108;2023-11-19T04:43:53;12.50;99.90
31619;DHT22;18230;51.502;7.108;2023-11-19T04:48:54;12.60;99.90
31619;DHT22;18230;51.502;7.108;2023-11-19T04:53:55;12.50;99.90
31619;DHT22;18230;51.502;7.108;2023-11-19T04:58:56;12.50;99.90
31619;DHT22;18230;51.502;7.108;2023-11-19T05:03:57;12.50;99.90
31619;DHT22;18230;51.502;7.108;2023-11-19T05:09:00;12.50;99.90
31619;DHT22;18230;51.502;7.108;2023-11-19T05:14:10;12.70;99.90
31619;DHT22;18230;51.502;7.108;2023-11-19T05:19:10;12.60;99.90
31619;DHT22;18230;51.502;7.108;2023-11-19T05:24:11;12.60;99.90
31619;DHT22;18230;51.502;7.108;2023-11-19T05:29:14;12.70;99.90
31619;DHT22;18230;51.502;7.108;2023-11-19T05:34:15;12.70;99.90
31619;DHT22;18230;51.502;7.108;2023-11-19T05:39:16;12.70;99.90
31619;DHT22;18230;51.502;7.108;2023-11-19T05:44:19;12.70;99.90
31619;DHT22;18230;51.502;7.108;2023-11-19T05:49:19;12.60;99.90
31619;DHT22;18230;51.502;7.108;2023-11-19T05:54:20;12.70;99.90
31619;DHT22;18230;51.502;7.108;2023-11-19T05:59:21;12.70;99.90
31619;DHT22;18230;51.502;7.108;2023-11-19T06:04:23;12.80;99.90
31619;DHT22;18230;51.502;7.108;2023-11-19T06:09:23;12.70;99.90
31619;DHT22;18230;51.502;7.108;2023-11-19T06:14:24;12.70;99.90
31619;DHT22;18230;51.502;7.108;2023-11-19T06:19:25;12.60;99.90
31619;DHT22;18230;51.502;7.108;2023-11-19T06:24:25;12.60;99.90
31619;DHT22;18230;51.502;7.108;2023-11-19T06:29:26;12.50;99.90
31619;DHT22;18230;51.502;7.108;2023-11-19T06:34:27;12.60;99.90
31619;DHT22;18230;51.502;7.108;2023-11-19T06:39:27;12.40;99.90
31619;DHT22;18230;51.502;7.108;2023-11-19T06:44:28;12.40;99.90
31619;DHT22;18230;51.502;7.108;2023-11-19T06:49:29;12.40;99.90
31619;DHT22;18230;51.502;7.108;2023-11-19T06:54:29;12.40;99.90
31619;DHT22;18230;51.502;7.108;2023-11-19T06:59:30;12.50;99.90
31619;DHT22;18230;51.502;7.108;2023-11-19T07:04:31;12.50;99.90
31619;DHT22;18230;51.502;7.108;2023-11-19T07:09:33;12.50;99.90
31619;DHT22;18230;51.502;7.108;2023-11-19T07:14:34;12.50;99.90
31619;DHT22;18230;51.502;7.108;2023-11-19T07:19:35;12.50;99.90
31619;DHT22;18230;51.502;7.108;2023-11-19T07:24:39;12.40;99.90
31619;DHT22;18230;51.502;7.108;2023-11-19T07:29:39;12.50;99.90
31619;DHT22;18230;51.502;7.108;2023-11-19T07:34:40;12.40;99.90
31619;DHT22;18230;51.502;7.108;2023-11-19T07:39:41;12.50;99.90
31619;DHT22;18230;51.502;7.108;2023-11-19T07:44:42;12.30;99.90
31619;DHT22;18230;51.502;7.108;2023-11-19T07:49:43;12.30;99.90
31619;DHT22;18230;51.502;7.108;2023-11-19T07:54:46;12.40;99.90
31619;DHT22;18230;51.502;7.108;2023-11-19T07:59:47;12.30;99.90
31619;DHT22;18230;51.502;7.108;2023-11-19T08:04:48;12.30;99.90
31619;DHT22;18230;51.502;7.108;2023-11-19T08:09:50;12.40;99.90
31619;DHT22;18230;51.502;7.108;2023-11-19T08:14:51;12.50;99.90
31619;DHT22;18230;51.502;7.108;2023-11-19T08:19:51;12.40;99.90
31619;DHT22;18230;51.502;7.108;2023-11-19T08:24:52;12.40;99.90
31619;DHT22;18230;51.502;7.108;2023-11-19T08:29:54;12.40;99.90
31619;DHT22;18230;51.502;7.108;2023-11-19T08:34:57;12.40;99.90
31619;DHT22;18230;51.502;7.108;2023-11-19T08:39:57;12.50;99.90
31619;DHT22;18230;51.502;7.108;2023-11-19T08:44:58;12.60;99.90
31619;DHT22;18230;51.502;7.108;2023-11-19T08:49:59;12.60;99.90
31619;DHT22;18230;51.502;7.108;2023-11-19T08:54:59;12.60;99.90
31619;DHT22;18230;51.502;7.108;2023-11-19T09:00:00;12.60;99.90
31619;DHT22;18230;51.502;7.108;2023-11-19T09:05:01;12.60;99.90
31619;DHT22;18230;51.502;7.108;2023-11-19T09:10:02;12.60;99.90
31619;DHT22;18230;51.502;7.108;2023-11-19T09:15:05;12.60;99.90
31619;DHT22;18230;51.502;7.108;2023-11-19T09:20:07;12.80;99.90
31619;DHT22;18230;51.502;7.108;2023-11-19T09:25:08;13.00;99.90
31619;DHT22;18230;51.502;7.108;2023-11-19T09:30:10;13.00;99.90
31619;DHT22;18230;51.502;7.108;2023-11-19T09:35:10;13.10;99.90
31619;DHT22;18230;51.502;7.108;2023-11-19T09:40:13;13.10;99.90
31619;DHT22;18230;51.502;7.108;2023-11-19T09:45:16;13.20;99.90
31619;DHT22;18230;51.502;7.108;2023-11-19T09:50:18;13.20;99.90
31619;DHT22;18230;51.502;7.108;2023-11-19T09:55:21;13.20;99.90
31619;DHT22;18230;51.502;7.108;2023-11-19T10:00:22;13.40;99.90
31619;DHT22;18230;51.502;7.108;2023-11-19T10:05:24;13.50;99.90
31619;DHT22;18230;51.502;7.108;2023-11-19T10:10:24;13.70;99.90
31619;DHT22;18230;51.502;7.108;2023-11-19T10:15:25;13.70;99.90
31619;DHT22;18230;51.502;7.108;2023-11-19T10:20:27;13.70;99.90
31619;DHT22;18230;51.502;7.108;2023-11-19T10:25:28;13.70;99.90
31619;DHT22;18230;51.502;7.108;2023-11-19T10:30:30;13.60;99.90
31619;DHT22;18230;51.502;7.108;2023-11-19T10:35:31;13.60;99.90
31619;DHT22;18230;51.502;7.108;2023-11-19T10:40:39;13.70;99.90
31619;DHT22;18230;51.502;7.108;2023-11-19T10:45:41;13.60;99.90
31619;DHT22;18230;51.502;7.108;2023-11-19T10:50:44;13.70;99.90
31619;DHT22;18230;51.502;7.108;2023-11-19T10:55:47;13.70;99.90
31619;DHT22;18230;51.502;7.108;2023-11-19T11:00:54;13.70;99.90
31619;DHT22;18230;51.502;7.108;2023-11-19T11:05:56;13.70;99.90
31619;DHT22;18230;51.502;7.108;2023-11-19T11:10:57;13.70;99.90
31619;DHT22;18230;51.502;7.108;2023-11-19T11:15:58;13.80;99.90
31619;DHT22;18230;51.502;7.108;2023-11-19T11:21:04;13.80;99.90
31619;DHT22;18230;51.502;7.108;2023-11-19T11:31:27;13.80;99.90
31619;DHT22;18230;51.502;7.108;2023-11-19T11:36:32;13.90;99.90
31619;DHT22;18230;51.502;7.108;2023-11-19T11:41:34;14.00;99.90
31619;DHT22;18230;51.502;7.108;2023-11-19T11:57:13;14.30;99.90
31619;DHT22;18230;51.502;7.108;2023-11-19T12:02:16;14.20;99.90
31619;DHT22;18230;51.502;7.108;2023-11-19T12:07:24;14.20;99.90
31619;DHT22;18230;51.502;7.108;2023-11-19T12:12:27;14.10;99.90
31619;DHT22;18230;51.502;7.108;2023-11-19T12:22:37;14.20;99.90
31619;DHT22;18230;51.502;7.108;2023-11-19T12:32:46;14.30;99.90
31619;DHT22;18230;51.502;7.108;2023-11-19T12:37:48;14.20;99.90
31619;DHT22;18230;51.502;7.108;2023-11-19T12:42:53;14.30;99.90
31619;DHT22;18230;51.502;7.108;2023-11-19T12:48:09;14.30;99.90
31619;DHT22;18230;51.502;7.108;2023-11-19T12:53:12;14.20;99.90
31619;DHT22;18230;51.502;7.108;2023-11-19T12:58:30;14.20;99.90
31619;DHT22;18230;51.502;7.108;2023-11-19T13:03:35;14.10;99.90
31619;DHT22;18230;51.502;7.108;2023-11-19T13:08:40;13.80;99.90
31619;DHT22;18230;51.502;7.108;2023-11-19T13:14:00;13.40;99.90
31619;DHT22;18230;51.502;7.108;2023-11-19T13:19:01;13.20;99.90
31619;DHT22;18230;51.502;7.108;2023-11-19T13:24:03;13.10;99.90
31619;DHT22;18230;51.502;7.108;2023-11-19T13:29:04;13.10;99.90
31619;DHT22;18230;51.502;7.108;2023-11-19T13:34:04;13.30;99.90
31619;DHT22;18230;51.502;7.108;2023-11-19T13:39:08;13.30;99.90
31619;DHT22;18230;51.502;7.108;2023-11-19T13:44:09;13.30;99.90
31619;DHT22;18230;51.502;7.108;2023-11-19T13:49:10;13.50;99.90
31619;DHT22;18230;51.502;7.108;2023-11-19T13:54:11;13.40;99.90
31619;DHT22;18230;51.502;7.108;2023-11-19T13:59:14;13.50;99.90
31619;DHT22;18230;51.502;7.108;2023-11-19T14:04:15;13.70;99.90
31619;DHT22;18230;51.502;7.108;2023-11-19T14:09:16;13.60;99.90
31619;DHT22;18230;51.502;7.108;2023-11-19T14:14:16;13.50;99.90
31619;DHT22;18230;51.502;7.108;2023-11-19T14:19:17;13.40;99.90
31619;DHT22;18230;51.502;7.108;2023-11-19T14:24:18;13.30;99.90
31619;DHT22;18230;51.502;7.108;2023-11-19T14:29:18;13.30;99.90
31619;DHT22;18230;51.502;7.108;2023-11-19T14:34:19;13.30;99.90
31619;DHT22;18230;51.502;7.108;2023-11-19T14:39:20;13.20;99.90
31619;DHT22;18230;51.502;7.108;2023-11-19T14:44:21;13.10;99.90
31619;DHT22;18230;51.502;7.108;2023-11-19T14:49:21;13.10;99.90
31619;DHT22;18230;51.502;7.108;2023-11-19T14:54:24;13.10;99.90
31619;DHT22;18230;51.502;7.108;2023-11-19T14:59:25;13.00;99.90
31619;DHT22;18230;51.502;7.108;2023-11-19T15:04:25;12.90;99.90
31619;DHT22;18230;51.502;7.108;2023-11-19T15:09:26;12.90;99.90
31619;DHT22;18230;51.502;7.108;2023-11-19T15:14:26;12.80;99.90
31619;DHT22;18230;51.502;7.108;2023-11-19T15:19:27;12.70;99.90
31619;DHT22;18230;51.502;7.108;2023-11-19T15:24:28;12.70;99.90
31619;DHT22;18230;51.502;7.108;2023-11-19T15:29:29;12.60;99.90
31619;DHT22;18230;51.502;7.108;2023-11-19T15:34:29;12.60;99.90
31619;DHT22;18230;51.502;7.108;2023-11-19T15:39:30;12.50;99.90
31619;DHT22;18230;51.502;7.108;2023-11-19T15:44:32;12.40;99.90
31619;DHT22;18230;51.502;7.108;2023-11-19T15:49:32;12.30;99.90
31619;DHT22;18230;51.502;7.108;2023-11-19T15:54:33;12.20;99.90
31619;DHT22;18230;51.502;7.108;2023-11-19T15:59:34;12.10;99.90
31619;DHT22;18230;51.502;7.108;2023-11-19T16:04:35;12.10;99.90
31619;DHT22;18230;51.502;7.108;2023-11-19T16:09:36;12.00;99.90
31619;DHT22;18230;51.502;7.108;2023-11-19T16:14:38;12.00;99.90
31619;DHT22;18230;51.502;7.108;2023-11-19T16:19:38;12.00;99.90
31619;DHT22;18230;51.502;7.108;2023-11-19T16:24:40;12.10;99.90
31619;DHT22;18230;51.502;7.108;2023-11-19T16:29:41;12.00;99.90
31619;DHT22;18230;51.502;7.108;2023-11-19T16:34:43;12.10;99.90
31619;DHT22;18230;51.502;7.108;2023-11-19T16:39:48;12.10;99.90
31619;DHT22;18230;51.502;7.108;2023-11-19T16:44:48;12.00;99.90
31619;DHT22;18230;51.502;7.108;2023-11-19T16:49:50;12.00;99.90
31619;DHT22;18230;51.502;7.108;2023-11-19T16:54:55;12.00;99.90
31619;DHT22;18230;51.502;7.108;2023-11-19T16:59:55;11.90;99.90
31619;DHT22;18230;51.502;7.108;2023-11-19T17:04:56;11.90;99.90
31619;DHT22;18230;51.502;7.108;2023-11-19T17:09:57;11.90;99.90
31619;DHT22;18230;51.502;7.108;2023-11-19T17:14:58;11.80;99.90
31619;DHT22;18230;51.502;7.108;2023-11-19T17:20:05;11.80;99.90
31619;DHT22;18230;51.502;7.108;2023-11-19T17:25:07;11.80;99.90
31619;DHT22;18230;51.502;7.108;2023-11-19T17:30:10;11.80;99.90
31619;DHT22;18230;51.502;7.108;2023-11-19T17:35:11;11.80;99.90
31619;DHT22;18230;51.502;7.108;2023-11-19T17:40:12;11.80;99.90
31619;DHT22;18230;51.502;7.108;2023-11-19T17:45:17;11.80;99.90
31619;DHT22;18230;51.502;7.108;2023-11-19T17:50:18;11.80;99.90
31619;DHT22;18230;51.502;7.108;2023-11-19T17:55:21;11.80;99.90
31619;DHT22;18230;51.502;7.108;2023-11-19T18:00:21;11.80;99.90
31619;DHT22;18230;51.502;7.108;2023-11-19T18:05:23;11.80;99.90
31619;DHT22;18230;51.502;7.108;2023-11-19T18:10:24;11.70;99.90
31619;DHT22;18230;51.502;7.108;2023-11-19T18:15:25;11.70;99.90
31619;DHT22;18230;51.502;7.108;2023-11-19T18:20:26;11.70;99.90
31619;DHT22;18230;51.502;7.108;2023-11-19T18:25:26;11.70;99.90
31619;DHT22;18230;51.502;7.108;2023-11-19T18:30:27;11.70;99.90
31619;DHT22;18230;51.502;7.108;2023-11-19T18:35:28;11.60;99.90
31619;DHT22;18230;51.502;7.108;2023-11-19T18:40:29;11.60;99.90
31619;DHT22;18230;51.502;7.108;2023-11-19T18:45:29;11.60;99.90
31619;DHT22;18230;51.502;7.108;2023-11-19T18:50:30;11.60;99.90
31619;DHT22;18230;51.502;7.108;2023-11-19T18:55:31;11.50;99.90
31619;DHT22;18230;51.502;7.108;2023-11-19T19:00:32;11.60;99.90
31619;DHT22;18230;51.502;7.108;2023-11-19T19:05:33;11.60;99.90
31619;DHT22;18230;51.502;7.108;2023-11-19T19:10:36;11.60;99.90
31619;DHT22;18230;51.502;7.108;2023-11-19T19:15:38;11.50;99.90
31619;DHT22;18230;51.502;7.108;2023-11-19T19:20:39;11.40;99.90
31619;DHT22;18230;51.502;7.108;2023-11-19T19:25:40;11.40;99.90
31619;DHT22;18230;51.502;7.108;2023-11-19T19:30:40;11.40;99.90
31619;DHT22;18230;51.502;7.108;2023-11-19T19:35:41;11.30;99.90
31619;DHT22;18230;51.502;7.108;2023-11-19T19:40:42;11.30;99.90
31619;DHT22;18230;51.502;7.108;2023-11-19T19:45:43;11.30;99.90
31619;DHT22;18230;51.502;7.108;2023-11-19T19:50:43;11.40;99.90
31619;DHT22;18230;51.502;7.108;2023-11-19T19:55:45;11.30;99.90
31619;DHT22;18230;51.502;7.108;2023-11-19T20:00:46;11.30;99.90
31619;DHT22;18230;51.502;7.108;2023-11-19T20:05:46;11.30;99.90
31619;DHT22;18230;51.502;7.108;2023-11-19T20:10:47;11.30;99.90
31619;DHT22;18230;51.502;7.108;2023-11-19T20:15:49;11.30;99.90
31619;DHT22;18230;51.502;7.108;2023-11-19T20:20:53;11.30;99.90
31619;DHT22;18230;51.502;7.108;2023-11-19T20:25:53;11.30;99.90
31619;DHT22;18230;51.502;7.108;2023-11-19T20:30:55;11.30;99.90
31619;DHT22;18230;51.502;7.108;2023-11-19T20:35:55;11.30;99.90
31619;DHT22;18230;51.502;7.108;2023-11-19T20:40:58;11.30;99.90
31619;DHT22;18230;51.502;7.108;2023-11-19T20:45:59;11.30;99.90
31619;DHT22;18230;51.502;7.108;2023-11-19T20:51:00;11.30;99.90
31619;DHT22;18230;51.502;7.108;2023-11-19T20:56:01;11.30;99.90
31619;DHT22;18230;51.502;7.108;2023-11-19T21:01:04;11.30;99.90
31619;DHT22;18230;51.502;7.108;2023-11-19T21:06:04;11.30;99.90
31619;DHT22;18230;51.502;7.108;2023-11-19T21:11:08;11.30;99.90
31619;DHT22;18230;51.502;7.108;2023-11-19T21:16:09;11.30;99.90
31619;DHT22;18230;51.502;7.108;2023-11-19T21:21:10;11.30;99.90
31619;DHT22;18230;51.502;7.108;2023-11-19T21:26:11;11.40;99.90
31619;DHT22;18230;51.502;7.108;2023-11-19T21:31:14;11.40;99.90
31619;DHT22;18230;51.502;7.108;2023-11-19T21:36:17;11.40;99.90
31619;DHT22;18230;51.502;7.108;2023-11-19T21:41:18;11.40;99.90
31619;DHT22;18230;51.502;7.108;2023-11-19T21:46:18;11.50;99.90
31619;DHT22;18230;51.502;7.108;2023-11-19T21:51:21;11.50;99.90
31619;DHT22;18230;51.502;7.108;2023-11-19T21:56:21;11.60;99.90
31619;DHT22;18230;51.502;7.108;2023-11-19T22:01:22;11.50;99.90
31619;DHT22;18230;51.502;7.108;2023-11-19T22:06:23;11.60;99.90
31619;DHT22;18230;51.502;7.108;2023-11-19T22:11:23;11.60;99.90
31619;DHT22;18230;51.502;7.108;2023-11-19T22:16:26;11.50;99.90
31619;DHT22;18230;51.502;7.108;2023-11-19T22:21:26;11.50;99.90
31619;DHT22;18230;51.502;7.108;2023-11-19T22:26:28;11.40;99.90
31619;DHT22;18230;51.502;7.108;2023-11-19T22:31:32;11.50;99.90
31619;DHT22;18230;51.502;7.108;2023-11-19T22:36:34;11.50;99.90
31619;DHT22;18230;51.502;7.108;2023-11-19T22:41:34;11.60;99.90
31619;DHT22;18230;51.502;7.108;2023-11-19T22:46:35;11.60;99.90
31619;DHT22;18230;51.502;7.108;2023-11-19T22:51:36;11.60;99.90
31619;DHT22;18230;51.502;7.108;2023-11-19T22:56:36;11.60;99.90
31619;DHT22;18230;51.502;7.108;2023-11-19T23:01:37;11.70;99.90
31619;DHT22;18230;51.502;7.108;2023-11-19T23:06:38;11.60;99.90
31619;DHT22;18230;51.502;7.108;2023-11-19T23:11:38;11.60;99.90
31619;DHT22;18230;51.502;7.108;2023-11-19T23:16:39;11.70;99.90
31619;DHT22;18230;51.502;7.108;2023-11-19T23:21:39;11.70;99.90
31619;DHT22;18230;51.502;7.108;2023-11-19T23:26:44;11.70;99.90
31619;DHT22;18230;51.502;7.108;2023-11-19T23:31:45;11.70;99.90
31619;DHT22;18230;51.502;7.108;2023-11-19T23:36:46;11.80;99.90
31619;DHT22;18230;51.502;7.108;2023-11-19T23:41:46;11.80;99.90
31619;DHT22;18230;51.502;7.108;2023-11-19T23:46:47;11.80;99.90
31619;DHT22;18230;51.502;7.108;2023-11-19T23:51:47;11.80;99.90
31619;DHT22;18230;51.502;7.108;2023-11-19T23:56:48;11.80;99.90
